createdAt,value
2022-10-11T00:02:35.666Z,10.43
2022-10-11T00:05:39.408Z,10.93
2022-10-11T00:08:42.382Z,10.37
2022-10-11T00:11:45.405Z,10.23
2022-10-11T00:14:48.434Z,10.13
2022-10-11T00:17:52.815Z,10.60
2022-10-11T00:21:03.303Z,9.67
2022-10-11T00:24:07.273Z,10.57
2022-10-11T00:27:11.471Z,10.73
2022-10-11T00:30:15.007Z,10.10
2022-10-11T00:33:19.415Z,10.97
2022-10-11T00:36:23.118Z,12.23
2022-10-11T00:39:26.115Z,11.97
2022-10-11T00:42:29.551Z,11.37
2022-10-11T00:46:01.909Z,12.50
2022-10-11T00:49:13.915Z,12.37
2022-10-11T00:52:21.911Z,12.10
2022-10-11T00:55:31.375Z,11.53
2022-10-11T00:58:36.677Z,12.43
2022-10-11T01:01:39.790Z,11.50
2022-10-11T01:04:44.727Z,13.60
2022-10-11T01:07:48.969Z,11.73
2022-10-11T01:10:52.678Z,11.70
2022-10-11T01:14:15.993Z,12.93
2022-10-11T01:17:26.989Z,12.90
2022-10-11T01:20:41.733Z,13.57
2022-10-11T01:24:17.002Z,14.10
2022-10-11T01:27:42.327Z,14.27
2022-10-11T01:30:47.690Z,14.70
2022-10-11T01:33:56.104Z,14.00
2022-10-11T01:37:05.365Z,13.97
2022-10-11T01:40:12.585Z,14.07
2022-10-11T01:43:17.809Z,14.50
2022-10-11T01:46:23.052Z,15.20
2022-10-11T01:49:26.180Z,14.00
2022-10-11T01:52:31.400Z,14.73
2022-10-11T01:55:43.862Z,13.40
2022-10-11T01:59:03.540Z,14.60
2022-10-11T02:02:19.935Z,14.67
2022-10-11T02:05:31.405Z,14.80
2022-10-11T02:08:40.163Z,14.40
2022-10-11T02:11:43.407Z,14.33
2022-10-11T02:14:50.720Z,14.53
2022-10-11T02:17:58.339Z,14.53
2022-10-11T02:21:03.343Z,13.97
2022-10-11T02:24:11.747Z,13.53
2022-10-11T02:27:17.716Z,14.23
2022-10-11T02:30:21.288Z,15.50
2022-10-11T02:33:29.354Z,13.57
2022-10-11T02:36:38.792Z,15.50
2022-10-11T02:39:46.122Z,14.70
2022-10-11T02:42:53.752Z,14.50
2022-10-11T02:46:00.962Z,14.90
2022-10-11T02:49:05.653Z,14.23
2022-10-11T02:52:08.795Z,13.33
2022-10-11T02:55:13.015Z,13.77
2022-10-11T02:58:16.042Z,14.30
2022-10-11T03:01:19.122Z,13.73
2022-10-11T03:04:23.721Z,14.97
2022-10-11T03:07:26.771Z,15.00
2022-10-11T03:10:29.796Z,13.57
2022-10-11T03:13:32.781Z,13.33
2022-10-11T03:16:35.791Z,14.07
2022-10-11T03:19:40.154Z,13.43
2022-10-11T03:22:43.193Z,13.17
2022-10-11T03:25:46.973Z,13.87
2022-10-11T03:28:50.064Z,13.73
2022-10-11T03:31:53.089Z,14.07
2022-10-11T03:34:57.765Z,15.00
2022-10-11T03:38:00.788Z,14.03
2022-10-11T03:41:03.941Z,15.97
2022-10-11T03:44:07.011Z,18.13
2022-10-11T03:47:10.672Z,18.67
2022-10-11T03:50:15.043Z,17.40
2022-10-11T03:53:18.322Z,18.00
2022-10-11T03:56:21.301Z,18.87
2022-10-11T03:59:24.457Z,18.53
2022-10-11T04:02:27.428Z,17.83
2022-10-11T04:05:31.970Z,20.47
2022-10-11T04:08:35.062Z,20.63
2022-10-11T04:11:38.302Z,19.00
2022-10-11T04:14:41.531Z,19.67
2022-10-11T04:17:44.505Z,17.90
2022-10-11T04:20:48.931Z,18.23
2022-10-11T04:23:51.987Z,19.60
2022-10-11T04:26:55.220Z,18.90
2022-10-11T04:29:58.249Z,17.70
2022-10-11T04:33:01.252Z,18.37
2022-10-11T04:36:06.740Z,18.10
2022-10-11T04:39:10.632Z,18.17
2022-10-11T04:42:13.784Z,16.13
2022-10-11T04:45:16.866Z,17.70
2022-10-11T04:48:19.977Z,16.50
2022-10-11T04:51:25.070Z,16.77
2022-10-11T04:54:28.673Z,16.90
2022-10-11T04:57:31.868Z,18.37
2022-10-11T05:00:34.872Z,16.80
2022-10-11T05:03:38.696Z,17.37
2022-10-11T05:06:43.123Z,16.13
2022-10-11T05:09:46.143Z,17.40
2022-10-11T05:12:49.357Z,16.77
2022-10-11T05:15:52.429Z,17.13
2022-10-11T05:18:55.528Z,16.60
2022-10-11T05:21:59.911Z,16.50
2022-10-11T05:25:02.966Z,17.10
2022-10-11T05:28:06.491Z,17.50
2022-10-11T05:31:09.607Z,17.00
2022-10-11T05:34:12.670Z,16.37
2022-10-11T05:37:17.042Z,17.37
2022-10-11T05:40:20.041Z,17.00
2022-10-11T05:43:23.053Z,16.40
2022-10-11T05:46:26.094Z,16.47
2022-10-11T05:49:29.295Z,16.73
2022-10-11T05:52:34.053Z,16.77
2022-10-11T05:55:38.466Z,16.67
2022-10-11T05:58:41.466Z,17.27
2022-10-11T06:01:44.565Z,15.97
2022-10-11T06:04:47.952Z,17.03
2022-10-11T06:07:52.604Z,16.47
2022-10-11T06:10:55.552Z,16.13
2022-10-11T06:13:59.565Z,16.43
2022-10-11T06:17:02.606Z,17.40
2022-10-11T06:20:06.437Z,15.53
2022-10-11T06:23:10.881Z,17.57
2022-10-11T06:26:13.840Z,16.53
2022-10-11T06:29:16.913Z,16.00
2022-10-11T06:32:20.202Z,17.20
2022-10-11T06:35:23.255Z,16.07
2022-10-11T06:38:27.735Z,15.80
2022-10-11T06:41:31.771Z,16.20
2022-10-11T06:44:34.710Z,15.70
2022-10-11T06:47:37.473Z,16.07
2022-10-11T06:50:59.131Z,15.50
2022-10-11T06:54:05.341Z,16.03
2022-10-11T06:57:08.047Z,16.90
2022-10-11T07:00:12.872Z,16.00
2022-10-11T07:03:16.023Z,16.43
2022-10-11T07:06:19.469Z,16.07
2022-10-11T07:09:24.007Z,16.13
2022-10-11T07:12:27.017Z,14.93
2022-10-11T07:15:30.092Z,15.10
2022-10-11T07:18:32.996Z,15.77
2022-10-11T07:21:36.875Z,15.07
2022-10-11T07:24:41.277Z,15.27
2022-10-11T07:27:44.240Z,14.93
2022-10-11T07:30:47.285Z,15.20
2022-10-11T07:33:50.502Z,16.33
2022-10-11T07:36:53.488Z,15.60
2022-10-11T07:39:57.882Z,16.80
2022-10-11T07:43:01.011Z,16.83
2022-10-11T07:46:05.388Z,16.70
2022-10-11T07:49:08.651Z,17.30
2022-10-11T07:52:11.671Z,17.23
2022-10-11T07:55:16.170Z,17.37
2022-10-11T07:58:19.115Z,17.47
2022-10-11T08:01:22.878Z,16.70
2022-10-11T08:04:25.913Z,17.47
2022-10-11T08:07:30.005Z,17.27
2022-10-11T08:10:40.349Z,17.60
2022-10-11T08:13:43.403Z,16.97
2022-10-11T08:16:46.413Z,16.97
2022-10-11T08:19:49.568Z,17.50
2022-10-11T08:22:52.619Z,17.00
2022-10-11T08:25:58.623Z,17.67
2022-10-11T08:29:03.487Z,16.57
2022-10-11T08:32:06.844Z,17.77
2022-10-11T08:35:10.206Z,16.47
2022-10-11T08:38:13.777Z,18.20
2022-10-11T08:41:37.375Z,18.67
2022-10-11T08:45:09.400Z,18.10
2022-10-11T08:48:15.085Z,17.93
2022-10-11T08:51:22.463Z,18.37
2022-10-11T08:54:38.349Z,19.17
2022-10-11T08:57:49.871Z,19.70
2022-10-11T09:00:55.709Z,20.27
2022-10-11T09:04:00.170Z,19.13
2022-10-11T09:07:08.463Z,20.20
2022-10-11T09:10:34.033Z,18.87
2022-10-11T09:13:56.361Z,21.30
2022-10-11T09:17:08.380Z,18.90
2022-10-11T09:20:25.365Z,18.70
2022-10-11T09:23:47.936Z,18.63
2022-10-11T09:26:57.225Z,18.63
2022-10-11T09:30:05.337Z,18.20
2022-10-11T09:33:16.544Z,17.87
2022-10-11T09:36:27.110Z,18.83
2022-10-11T09:39:32.749Z,19.30
2022-10-11T09:42:35.750Z,18.10
2022-10-11T09:45:49.264Z,18.03
2022-10-11T09:48:54.625Z,19.07
2022-10-11T09:52:00.652Z,18.00
2022-10-11T09:55:04.749Z,18.37
2022-10-11T09:58:31.152Z,19.90
2022-10-11T10:01:36.234Z,19.60
2022-10-11T10:04:56.626Z,17.90
2022-10-11T10:08:05.120Z,18.53
2022-10-11T10:11:10.642Z,18.50
2022-10-11T10:14:24.044Z,19.03
2022-10-11T10:17:28.524Z,19.20
2022-10-11T10:20:34.640Z,18.43
2022-10-11T10:23:38.771Z,19.00
2022-10-11T10:26:41.790Z,18.90
2022-10-11T10:29:45.529Z,19.30
2022-10-11T10:32:57.014Z,18.70
2022-10-11T10:36:06.775Z,18.77
2022-10-11T10:39:23.254Z,18.60
2022-10-11T10:42:26.438Z,18.60
2022-10-11T10:45:40.037Z,19.27
2022-10-11T10:52:47.699Z,19.30
2022-10-11T10:55:56.845Z,18.87
2022-10-11T10:59:15.411Z,19.63
2022-10-11T11:02:39.676Z,18.53
2022-10-11T11:05:52.755Z,18.47
2022-10-11T11:09:12.186Z,19.90
2022-10-11T11:12:39.625Z,18.00
2022-10-11T11:15:49.189Z,19.00
2022-10-11T11:18:59.446Z,19.60
2022-10-11T11:22:11.142Z,18.97
2022-10-11T11:25:25.873Z,19.47
2022-10-11T11:28:46.923Z,18.33
2022-10-11T11:32:09.654Z,19.47
2022-10-11T11:35:21.349Z,18.50
2022-10-11T11:38:35.288Z,18.30
2022-10-11T11:41:41.918Z,18.10
2022-10-11T11:44:48.423Z,19.30
2022-10-11T11:47:55.939Z,17.00
2022-10-11T11:51:07.352Z,18.67
2022-10-11T11:54:25.310Z,18.20
2022-10-11T11:57:40.330Z,17.73
2022-10-11T12:00:52.802Z,18.40
2022-10-11T12:03:58.905Z,18.30
2022-10-11T12:07:22.393Z,18.17
2022-10-11T12:10:31.154Z,17.60
2022-10-11T12:13:37.066Z,17.20
2022-10-11T12:17:07.258Z,17.63
2022-10-11T12:20:17.880Z,17.70
2022-10-11T12:23:48.276Z,17.60
2022-10-11T12:26:56.049Z,18.53
2022-10-11T12:29:59.082Z,15.90
2022-10-11T12:33:07.976Z,17.07
2022-10-11T12:36:35.595Z,17.40
2022-10-11T12:39:51.852Z,16.90
2022-10-11T12:43:23.892Z,16.70
2022-10-11T12:47:25.452Z,16.10
2022-10-11T12:50:34.818Z,17.47
2022-10-11T12:54:25.379Z,16.63
2022-10-11T12:58:00.896Z,17.03
2022-10-11T13:01:22.096Z,16.63
2022-10-11T13:04:29.324Z,15.30
2022-10-11T13:07:33.023Z,15.97
2022-10-11T13:10:43.633Z,16.03
2022-10-11T13:13:51.931Z,16.27
2022-10-11T13:17:05.815Z,16.00
2022-10-11T13:20:17.208Z,15.97
2022-10-11T13:23:23.878Z,14.80
2022-10-11T13:26:28.279Z,14.50
2022-10-11T13:29:34.666Z,15.00
2022-10-11T13:32:39.452Z,16.00
2022-10-11T13:35:42.837Z,15.40
2022-10-11T13:38:53.742Z,15.00
2022-10-11T13:41:58.206Z,14.40
2022-10-11T13:45:01.886Z,15.40
2022-10-11T13:48:15.138Z,15.33
2022-10-11T13:51:29.748Z,14.77
2022-10-11T13:54:59.114Z,14.93
2022-10-11T13:58:04.288Z,15.03
2022-10-11T14:01:17.852Z,14.03
2022-10-11T14:04:26.140Z,13.70
2022-10-11T14:07:37.436Z,14.30
2022-10-11T14:10:40.620Z,14.20
2022-10-11T14:13:45.532Z,14.80
2022-10-11T14:16:56.920Z,14.60
2022-10-11T14:20:15.515Z,14.33
2022-10-11T14:23:18.539Z,13.80
2022-10-11T14:26:23.044Z,14.00
2022-10-11T14:29:28.589Z,12.80
2022-10-11T14:32:34.206Z,13.80
2022-10-11T14:35:38.832Z,14.20
2022-10-11T14:38:41.986Z,13.30
2022-10-11T14:41:45.363Z,13.50
2022-10-11T14:44:48.503Z,13.50
2022-10-11T14:47:52.045Z,13.40
2022-10-11T14:51:01.239Z,14.27
2022-10-11T14:54:04.251Z,14.33
2022-10-11T14:57:07.276Z,14.30
2022-10-11T15:00:17.493Z,14.97
2022-10-11T15:03:20.519Z,16.17
2022-10-11T15:06:28.422Z,15.70
2022-10-11T15:09:31.818Z,18.70
2022-10-11T15:12:34.858Z,18.97
2022-10-11T15:15:41.157Z,19.60
2022-10-11T15:18:50.762Z,19.87
2022-10-11T15:21:55.204Z,25.10
2022-10-11T15:25:00.296Z,25.30
2022-10-11T15:28:03.365Z,25.33
2022-10-11T15:31:06.504Z,28.70
2022-10-11T15:34:11.359Z,27.00
2022-10-11T15:37:15.845Z,28.60
2022-10-11T15:40:23.502Z,28.80
2022-10-11T15:43:27.927Z,28.73
2022-10-11T15:46:31.031Z,26.57
2022-10-11T15:49:34.024Z,27.60
2022-10-11T15:52:38.478Z,26.67
2022-10-11T15:55:43.925Z,26.00
2022-10-11T15:58:48.072Z,24.87
2022-10-11T16:01:51.297Z,25.77
2022-10-11T16:04:54.626Z,25.33
2022-10-11T16:07:59.315Z,26.80
2022-10-11T16:11:02.583Z,24.73
2022-10-11T16:14:06.165Z,23.90
2022-10-11T16:17:09.155Z,24.27
2022-10-11T16:20:12.265Z,24.80
2022-10-11T16:23:16.997Z,23.53
2022-10-11T16:26:20.035Z,23.53
2022-10-11T16:29:24.262Z,23.27
2022-10-11T16:32:28.190Z,22.20
2022-10-11T16:35:32.801Z,22.90
2022-10-11T16:38:37.287Z,22.50
2022-10-11T16:41:40.354Z,22.57
2022-10-11T16:44:43.337Z,22.27
2022-10-11T16:47:46.510Z,22.53
2022-10-11T16:50:49.541Z,21.90
2022-10-11T16:53:54.471Z,21.13
2022-10-11T16:56:58.082Z,21.20
2022-10-11T17:00:01.357Z,21.10
2022-10-11T17:03:04.366Z,20.60
2022-10-11T17:06:08.793Z,19.90
2022-10-11T17:09:14.236Z,20.53
2022-10-11T17:12:19.784Z,20.37
2022-10-11T17:15:23.216Z,19.20
2022-10-11T17:18:26.259Z,19.40
2022-10-11T17:21:29.257Z,18.50
2022-10-11T17:24:35.894Z,20.10
2022-10-11T17:27:38.978Z,17.03
2022-10-11T17:30:42.289Z,16.60
2022-10-11T17:33:45.502Z,16.87
2022-10-11T17:36:49.227Z,15.87
2022-10-11T17:39:53.929Z,15.10
2022-10-11T17:42:57.089Z,14.67
2022-10-11T17:46:02.110Z,14.80
2022-10-11T17:49:08.139Z,14.80
2022-10-11T17:52:11.327Z,14.20
2022-10-11T17:55:16.798Z,14.80
2022-10-11T17:58:19.970Z,13.23
2022-10-11T18:01:24.632Z,13.40
2022-10-11T18:04:29.950Z,13.90
2022-10-11T18:07:33.062Z,13.27
2022-10-11T18:10:38.382Z,13.10
2022-10-11T18:13:45.989Z,13.73
2022-10-11T18:16:49.067Z,13.30
2022-10-11T18:19:52.382Z,12.60
2022-10-11T18:23:00.535Z,12.30
2022-10-11T18:26:11.841Z,12.10
2022-10-11T18:29:17.179Z,12.07
2022-10-11T18:32:21.079Z,12.53
2022-10-11T18:35:24.139Z,12.87
2022-10-11T18:38:27.326Z,12.70
2022-10-11T18:41:32.977Z,12.20
2022-10-11T18:44:36.017Z,12.23
2022-10-11T18:47:39.203Z,12.70
2022-10-11T18:50:42.280Z,11.80
2022-10-11T18:53:46.399Z,11.87
2022-10-11T18:56:50.981Z,11.43
2022-10-11T18:59:54.447Z,12.03
2022-10-11T19:02:57.450Z,12.10
2022-10-11T19:06:03.962Z,11.80
2022-10-11T19:09:09.148Z,11.07
2022-10-11T19:12:14.308Z,11.37
2022-10-11T19:15:17.727Z,10.83
2022-10-11T19:18:20.972Z,10.63
2022-10-11T19:21:24.404Z,11.07
2022-10-11T19:24:29.846Z,11.80
2022-10-11T19:27:34.290Z,12.50
2022-10-11T19:30:37.408Z,12.40
2022-10-11T19:33:40.741Z,13.53
2022-10-11T19:36:44.277Z,12.70
2022-10-11T19:39:47.405Z,12.57
2022-10-11T19:42:51.886Z,12.17
2022-10-11T19:46:01.393Z,12.60
2022-10-11T19:49:04.566Z,12.20
2022-10-11T19:52:09.623Z,12.63
2022-10-11T19:55:12.711Z,12.57
2022-10-11T19:58:17.549Z,12.40
2022-10-11T20:01:22.638Z,11.80
2022-10-11T20:07:49.328Z,11.93
2022-10-11T20:10:54.426Z,11.87
2022-10-11T20:13:59.047Z,11.40
2022-10-11T20:17:02.284Z,13.70
2022-10-11T20:20:05.813Z,11.80
2022-10-11T20:23:08.854Z,13.63
2022-10-11T20:26:13.970Z,20.60
2022-10-11T20:29:18.460Z,21.93
2022-10-11T20:32:21.463Z,20.27
2022-10-11T20:35:24.487Z,19.50
2022-10-11T20:38:27.771Z,19.00
2022-10-11T20:41:32.920Z,18.23
2022-10-11T20:44:37.634Z,18.90
2022-10-11T20:47:40.707Z,20.43
2022-10-11T20:50:45.672Z,20.17
2022-10-11T20:53:48.711Z,19.23
2022-10-11T20:56:51.740Z,20.70
2022-10-11T20:59:56.145Z,20.93
2022-10-11T21:02:59.115Z,20.40
2022-10-11T21:06:02.186Z,20.47
2022-10-11T21:09:05.600Z,20.50
2022-10-11T21:12:08.850Z,20.83
2022-10-11T21:15:13.422Z,20.83
2022-10-11T21:18:16.842Z,21.70
2022-10-11T21:21:20.283Z,21.27
2022-10-11T21:24:23.704Z,22.03
2022-10-11T21:27:26.934Z,21.40
2022-10-11T21:30:32.170Z,20.83
2022-10-11T21:33:36.054Z,21.37
2022-10-11T21:36:39.136Z,20.40
2022-10-11T21:39:42.162Z,21.00
2022-10-11T21:42:45.244Z,20.83
2022-10-11T21:45:49.868Z,20.93
2022-10-11T21:48:52.963Z,23.10
2022-10-11T21:51:56.519Z,21.17
2022-10-11T21:54:59.488Z,22.37
2022-10-11T21:58:02.586Z,22.20
2022-10-11T22:01:07.537Z,21.60
2022-10-11T22:04:12.024Z,22.27
2022-10-11T22:07:15.025Z,22.80
2022-10-11T22:10:18.192Z,23.60
2022-10-11T22:13:21.282Z,22.83
2022-10-11T22:16:25.710Z,24.03
2022-10-11T22:19:28.705Z,24.20
2022-10-11T22:22:31.766Z,24.47
2022-10-11T22:25:36.124Z,23.57
2022-10-11T22:28:39.329Z,24.43
2022-10-11T22:31:43.749Z,24.60
2022-10-11T22:34:46.706Z,24.80
2022-10-11T22:37:50.406Z,25.07
2022-10-11T22:40:53.787Z,24.27
2022-10-11T22:43:56.794Z,24.13
2022-10-11T22:47:01.303Z,24.67
2022-10-11T22:50:04.811Z,24.80
2022-10-11T22:53:08.346Z,24.70
2022-10-11T22:56:11.685Z,24.33
2022-10-11T22:59:14.739Z,23.13
2022-10-11T23:02:19.174Z,23.57
2022-10-11T23:05:22.208Z,23.90
2022-10-11T23:08:25.690Z,23.73
2022-10-11T23:11:28.935Z,23.40
2022-10-11T23:14:31.924Z,24.03
2022-10-11T23:17:36.572Z,22.97
2022-10-11T23:20:40.506Z,23.23
2022-10-11T23:23:43.527Z,23.40
2022-10-11T23:26:46.518Z,22.50
2022-10-11T23:29:49.543Z,22.43
2022-10-11T23:32:54.004Z,22.97
2022-10-11T23:35:57.020Z,22.20
2022-10-11T23:39:00.678Z,23.00
2022-10-11T23:42:03.846Z,21.60
2022-10-11T23:45:07.842Z,22.60
2022-10-11T23:48:12.956Z,22.03
2022-10-11T23:51:16.600Z,21.33
2022-10-11T23:54:19.625Z,22.20
2022-10-11T23:57:22.676Z,21.30
